Kimberly, Oregon
Current Conditions -  °F | °C
As of 10:35 PM on Tuesday 25 Nov 2014 (Local Time) from KGCD Reporting Station
Clear Clear  
Wind Chill: 43°   Ceiling: Unl
Heat Index: 47°   Visibility: 10mi
Dew Point: 38°   Wind: 8mph
Humidity: 73%   Direction: 220°SW
Pressure: 30.3"   Gusts: NA
Location:  44.76°N, 119.65°W
Report Text: KGCD 260635Z AUTO 22007KT 10SM CLR 08/04 A3030 RMK AO2 T00810035
Loading
Personal Weather Stations






























Interactive Weather Map New forecast layout! Learn more

10-Day Weather Forecast

Advertisements
Track Severe Weather on mobile